Bloomington, Wisconsin
Current Conditions -  °F | °C
As of 9:35 AM on Saturday 25 Oct 2014 (Local Time) from KPDC Reporting Station
Clear Clear  
Wind Chill: 13°   Ceiling: Unl
Heat Index: 13°   Visibility: 10mi
Dew Point:   Wind: 5mph
Humidity: 66%   Direction: 280°W
Pressure: 30.01"   Gusts: NA
Location:  42.89°N, 90.92°W
Report Text: KPDC 251435Z AUTO 28004KT 10SM CLR 13/07 A3001 RMK AO2 T01320069
Loading
Personal Weather Stations






























Interactive Weather Map
Tropical Storm Tracking
New forecast layout! Learn more

10-Day Weather Forecast

Advertisements
Track Severe Weather on mobile